TXG weather

Taichung Airport
Taichung City, Taichung (city), Taiwan

Public forecast

Using degrees Celsius for public forecast. Weather courtesy of forecast.io.

METAR (pilot weather report)

Closest report is Taichung Ching Chuang Kang Airport, 5.0 nm (9.3 km) NNW. Retrieved 2019/05/27 07:30 UTC (6 minutes ago):

RCMQ 270730Z 17009KT 4800 -RA BR FEW006 FEW010CB BKN016 BKN060 26/25 Q1009 NOSIG RMK A2980 CB SE MOV VRBL RVR N/A

TAF (pilot weather forecast)

Closest forecast is Taichung Ching Chuang Kang Airport, 5.0 nm (9.3 km) NNW. Retrieved 2019/05/27 06:21 UTC (1 hour ago):

TAF RCMQ 270500Z 2706/2806 23008KT 9999 -RA FEW004 SCT012 BKN040 TX29/2805Z TN26/2721Z TEMPO 2707/2712 9999 FEW006 SCT020 BKN060 BECMG 2713/2716 25004KT 7000 FEW006 SCT020 BKN060 BECMG 2720/2723 4800 -RA BR SCT006 BKN016 BKN040 TEMPO 2801/2805 2000 -RA BR SCT004 BKN010 BKN020